Time;durP1;ratioP1;P1;durP2;ratioP2;P2;SDS_P1;SDS_P2;PMS_P1;PMS_P2;Temp;Humidity;BMP_temperature;BMP_pressure;BME280_temperature;BME280_humidity;BME280_pressure;Samples;Min_cycle;Max_cycle;Signal;HPM_P1;HPM_P2
2022/03/27 00:02:11;;;;;;;2.15;0.65;;;-3.00;99.90;;;;;;4937732;29;20409;-84
2022/03/27 00:04:39;;;;;;;2.30;0.80;;;-3.00;99.90;;;;;;4936654;29;20418;-81
2022/03/27 00:07:06;;;;;;;0.90;0.60;;;-3.00;99.90;;;;;;4937203;29;20900;-82
2022/03/27 00:09:34;;;;;;;2.17;0.60;;;-3.00;99.90;;;;;;4933172;29;20775;-82
2022/03/27 00:12:03;;;;;;;0.90;0.63;;;-3.00;99.90;;;;;;4930468;29;20401;-84
2022/03/27 00:14:31;;;;;;;3.10;0.80;;;-3.00;99.90;;;;;;4927080;29;20494;-82
2022/03/27 00:16:59;;;;;;;1.23;0.70;;;-3.10;99.90;;;;;;4933610;29;20458;-81
2022/03/27 00:19:27;;;;;;;1.77;0.60;;;-3.00;99.90;;;;;;4933669;29;20411;-82
2022/03/27 00:21:55;;;;;;;1.85;0.80;;;-3.00;99.90;;;;;;4917395;29;20403;-82
2022/03/27 00:24:23;;;;;;;2.03;0.70;;;-3.10;99.90;;;;;;4924522;29;20506;-83
2022/03/27 00:26:50;;;;;;;2.10;0.68;;;-3.10;99.90;;;;;;4912947;29;20421;-80
2022/03/27 00:29:18;;;;;;;1.42;0.80;;;-3.00;99.90;;;;;;4925380;29;20890;-82
2022/03/27 00:31:46;;;;;;;1.92;0.70;;;-3.00;99.90;;;;;;4924213;29;20488;-80
2022/03/27 00:34:14;;;;;;;1.95;0.80;;;-3.00;99.90;;;;;;4926085;29;20418;-82
2022/03/27 00:36:42;;;;;;;1.02;0.60;;;-3.00;99.90;;;;;;4926635;29;20841;-83
2022/03/27 00:39:09;;;;;;;2.28;0.80;;;-3.10;99.90;;;;;;4920897;29;20401;-80
2022/03/27 00:41:37;;;;;;;3.10;0.90;;;-3.10;99.90;;;;;;4922150;29;20445;-82
2022/03/27 00:44:05;;;;;;;1.40;0.70;;;-3.00;99.90;;;;;;4927015;29;20410;-81
2022/03/27 00:46:32;;;;;;;1.13;0.70;;;-3.00;99.90;;;;;;4924464;29;20411;-81
2022/03/27 00:49:00;;;;;;;2.80;0.60;;;-3.10;99.90;;;;;;4927396;29;20407;-81
2022/03/27 00:51:28;;;;;;;1.50;0.70;;;-3.10;99.90;;;;;;4921901;29;20966;-85
2022/03/27 00:53:55;;;;;;;1.52;0.70;;;-3.10;99.90;;;;;;4935145;29;20892;-83
2022/03/27 00:56:23;;;;;;;1.67;0.73;;;-3.10;99.90;;;;;;4925732;29;20855;-84
2022/03/27 00:58:51;;;;;;;1.60;0.70;;;-3.10;99.90;;;;;;4929213;29;20498;-84
2022/03/27 01:01:25;;;;;;;1.77;0.80;;;-3.10;99.90;;;;;;4913065;29;20400;-81
2022/03/27 01:03:56;;;;;;;1.67;0.73;;;-3.10;99.90;;;;;;4926855;29;20402;-83
2022/03/27 01:06:32;;;;;;;1.70;0.70;;;-3.10;99.90;;;;;;4928735;29;20401;-85
2022/03/27 01:11:48;;;;;;;1.73;0.93;;;-3.00;99.90;;;;;;4944418;29;20402;-81
2022/03/27 01:14:25;;;;;;;1.25;0.80;;;-3.00;99.90;;;;;;4940492;29;20410;-81
2022/03/27 01:17:02;;;;;;;2.67;0.70;;;-2.90;99.90;;;;;;4924538;29;20446;-83
2022/03/27 01:19:29;;;;;;;1.80;0.70;;;-3.00;99.90;;;;;;4924107;29;20498;-81
2022/03/27 01:21:58;;;;;;;1.20;0.73;;;-3.00;99.90;;;;;;4931956;29;20894;-84
2022/03/27 01:24:25;;;;;;;2.50;0.93;;;-3.00;99.90;;;;;;4916385;29;20412;-83
2022/03/27 01:26:53;;;;;;;2.55;0.90;;;-3.00;99.90;;;;;;4907445;29;20512;-81
2022/03/27 01:29:21;;;;;;;2.13;0.90;;;-3.00;99.90;;;;;;4936220;29;20438;-84
2022/03/27 01:31:51;;;;;;;1.20;0.60;;;-3.00;99.90;;;;;;4916108;29;20919;-83
2022/03/27 01:34:20;;;;;;;1.88;0.80;;;-3.00;99.90;;;;;;4916290;29;20407;-81
2022/03/27 01:36:47;;;;;;;1.75;0.80;;;-2.90;99.90;;;;;;4916230;29;20832;-82
2022/03/27 01:39:16;;;;;;;2.17;0.80;;;-2.90;99.90;;;;;;4904307;29;20494;-82
2022/03/27 01:41:45;;;;;;;3.20;0.90;;;-3.00;99.90;;;;;;4925110;29;20407;-84
2022/03/27 01:44:15;;;;;;;1.77;0.80;;;-3.00;99.90;;;;;;4915739;29;20755;-84
2022/03/27 01:46:44;;;;;;;1.83;0.77;;;-3.00;99.90;;;;;;4934446;29;20449;-84
2022/03/27 01:49:13;;;;;;;1.25;0.65;;;-2.90;99.90;;;;;;4935020;29;20581;-82
2022/03/27 01:51:42;;;;;;;0.95;0.68;;;-3.00;99.90;;;;;;4950786;29;20897;-84
2022/03/27 01:54:10;;;;;;;3.80;1.02;;;-3.00;99.90;;;;;;4934808;29;20408;-84
2022/03/27 01:56:39;;;;;;;2.05;0.80;;;-3.00;99.90;;;;;;4935619;29;20424;-83
2022/03/27 01:59:09;;;;;;;3.90;1.20;;;-3.00;99.90;;;;;;4934500;29;20485;-81
2022/03/27 02:01:38;;;;;;;2.20;0.80;;;-3.00;99.90;;;;;;4934382;29;20419;-83
2022/03/27 02:04:07;;;;;;;1.80;0.70;;;-3.00;99.90;;;;;;4935832;29;20394;-84
2022/03/27 02:06:39;;;;;;;1.48;0.80;;;-3.00;99.90;;;;;;4934776;29;20968;-83
2022/03/27 02:09:09;;;;;;;1.92;0.75;;;-3.00;99.90;;;;;;4934630;29;20484;-83
2022/03/27 02:11:37;;;;;;;2.67;0.90;;;-3.00;99.90;;;;;;4918747;29;20900;-82
2022/03/27 02:14:04;;;;;;;1.60;0.70;;;-3.00;99.90;;;;;;4934339;29;20477;-82
2022/03/27 02:16:32;;;;;;;3.58;0.77;;;-3.00;99.90;;;;;;4950209;29;20757;-82
2022/03/27 02:19:00;;;;;;;1.42;0.73;;;-3.10;99.90;;;;;;4934371;29;20465;-85
2022/03/27 02:21:28;;;;;;;2.90;0.73;;;-3.10;99.90;;;;;;4934757;29;20407;-83
2022/03/27 02:23:55;;;;;;;1.77;0.77;;;-3.10;99.90;;;;;;4934527;29;20872;-82
2022/03/27 02:26:23;;;;;;;3.03;0.90;;;-3.10;99.90;;;;;;4934561;29;20477;-83
2022/03/27 02:28:51;;;;;;;2.17;0.85;;;-3.10;99.90;;;;;;4950362;29;20393;-83
2022/03/27 02:31:19;;;;;;;1.20;0.70;;;-3.20;99.90;;;;;;4934382;29;20410;-83
2022/03/27 02:33:48;;;;;;;1.80;0.80;;;-3.20;99.90;;;;;;4939808;29;20429;-83
2022/03/27 02:36:19;;;;;;;1.70;0.70;;;-3.20;99.90;;;;;;4934139;29;20402;-84
2022/03/27 02:38:47;;;;;;;2.40;0.90;;;-3.20;99.90;;;;;;4918447;29;20414;-83
2022/03/27 02:41:16;;;;;;;1.23;0.70;;;-3.20;99.90;;;;;;4933987;29;20409;-84
2022/03/27 02:43:44;;;;;;;4.00;1.00;;;-3.30;99.90;;;;;;4935157;29;20404;-84
2022/03/27 02:46:11;;;;;;;1.80;0.80;;;-3.30;99.90;;;;;;4949803;29;20987;-83
2022/03/27 02:48:39;;;;;;;1.20;0.60;;;-3.30;99.90;;;;;;4949871;29;20492;-83
2022/03/27 02:51:07;;;;;;;2.25;0.70;;;-3.30;99.90;;;;;;4933943;29;20447;-83
2022/03/27 02:53:35;;;;;;;2.60;0.80;;;-3.30;99.90;;;;;;4933823;29;20406;-87
2022/03/27 02:56:06;;;;;;;1.33;0.70;;;-3.30;99.90;;;;;;4949812;29;20426;-83
2022/03/27 02:58:35;;;;;;;1.48;0.70;;;-3.30;99.90;;;;;;4933812;29;20480;-84
2022/03/27 03:01:04;;;;;;;1.23;0.60;;;-3.30;99.90;;;;;;4933675;29;20409;-83
2022/03/27 03:03:32;;;;;;;1.75;0.70;;;-3.30;99.90;;;;;;4933932;29;20410;-84
2022/03/27 03:06:01;;;;;;;0.93;0.63;;;-3.30;99.90;;;;;;4933856;29;20398;-84
2022/03/27 03:08:29;;;;;;;1.13;0.70;;;-3.40;99.90;;;;;;4933162;29;20450;-84
2022/03/27 03:10:56;;;;;;;1.60;0.80;;;-3.40;99.90;;;;;;4917763;29;20398;-84
2022/03/27 03:13:24;;;;;;;1.30;0.70;;;-3.40;99.90;;;;;;4918064;29;20457;-85
2022/03/27 03:15:54;;;;;;;1.37;0.87;;;-3.40;99.90;;;;;;4933656;29;20769;-83
2022/03/27 03:18:22;;;;;;;1.17;0.60;;;-3.40;99.90;;;;;;4933467;29;20413;-84
2022/03/27 03:20:50;;;;;;;2.42;0.68;;;-3.40;99.90;;;;;;4933532;29;20409;-84
2022/03/27 03:23:18;;;;;;;1.92;1.15;;;-3.50;99.90;;;;;;4933551;29;20410;-84
2022/03/27 03:25:46;;;;;;;0.80;0.60;;;-3.50;99.90;;;;;;4949414;29;20394;-86
2022/03/27 03:28:33;;;;;;;1.60;0.80;;;-3.50;99.90;;;;;;4935025;29;20402;-86
2022/03/27 03:31:01;;;;;;;1.40;0.70;;;-3.60;99.90;;;;;;4933450;29;20965;-84
2022/03/27 03:33:29;;;;;;;0.90;0.60;;;-3.60;99.90;;;;;;4934524;29;20398;-86
2022/03/27 03:35:56;;;;;;;2.28;0.68;;;-3.60;99.90;;;;;;4933423;29;20496;-86
2022/03/27 03:38:24;;;;;;;2.60;0.68;;;-3.60;99.90;;;;;;4933297;29;20428;-86
2022/03/27 03:40:52;;;;;;;3.30;0.70;;;-3.60;99.90;;;;;;4949378;29;20441;-85
2022/03/27 03:43:20;;;;;;;1.80;0.60;;;-3.60;99.90;;;;;;4933234;29;20394;-86
2022/03/27 03:45:48;;;;;;;1.90;0.60;;;-3.60;99.90;;;;;;4933636;29;20449;-84
2022/03/27 03:48:17;;;;;;;1.10;0.68;;;-3.70;99.90;;;;;;4934489;29;20406;-83
2022/03/27 03:50:45;;;;;;;2.20;0.60;;;-3.70;99.90;;;;;;4930860;29;20429;-85
2022/03/27 03:53:12;;;;;;;1.05;0.50;;;-3.70;99.90;;;;;;4914766;29;20403;-85
2022/03/27 03:55:40;;;;;;;2.63;0.50;;;-3.70;99.90;;;;;;4914381;29;20406;-86
2022/03/27 03:58:08;;;;;;;2.17;0.80;;;-3.80;99.90;;;;;;4914365;29;20435;-86
2022/03/27 04:00:36;;;;;;;1.60;0.70;;;-3.80;99.90;;;;;;4919585;29;20505;-86
2022/03/27 04:03:03;;;;;;;1.20;0.60;;;-3.80;99.90;;;;;;4943995;29;20431;-85
2022/03/27 04:05:32;;;;;;;1.52;0.77;;;-3.80;99.90;;;;;;4915363;29;20486;-86
2022/03/27 04:08:00;;;;;;;1.60;0.60;;;-3.80;99.90;;;;;;4917021;29;20413;-85
2022/03/27 04:10:28;;;;;;;1.27;0.70;;;-3.80;99.90;;;;;;4934331;29;20496;-86
2022/03/27 04:12:56;;;;;;;2.03;0.55;;;-3.80;99.90;;;;;;4934226;29;20430;-85
2022/03/27 04:15:24;;;;;;;2.22;0.60;;;-3.90;99.90;;;;;;4932926;29;20497;-85
2022/03/27 04:18:13;;;;;;;1.58;0.57;;;-3.90;99.90;;;;;;4934187;29;20421;-85
2022/03/27 04:20:43;;;;;;;1.38;0.50;;;-3.90;99.90;;;;;;4935514;29;20394;-86
2022/03/27 04:23:11;;;;;;;1.43;0.60;;;-3.90;99.90;;;;;;4936639;29;20406;-85
2022/03/27 04:25:39;;;;;;;1.23;0.60;;;-3.90;99.90;;;;;;4936489;29;20401;-83
2022/03/27 04:28:08;;;;;;;1.00;0.60;;;-3.80;99.90;;;;;;4936544;29;20452;-85
2022/03/27 04:30:37;;;;;;;1.33;0.60;;;-3.90;99.90;;;;;;4952211;29;20442;-85
2022/03/27 04:33:07;;;;;;;1.35;0.63;;;-3.90;99.90;;;;;;4937426;29;20409;-85
2022/03/27 04:35:35;;;;;;;2.08;0.75;;;-3.80;99.90;;;;;;4951213;29;20402;-85
2022/03/27 04:38:03;;;;;;;1.10;0.50;;;-3.80;99.90;;;;;;4937387;29;20409;-83
2022/03/27 04:40:31;;;;;;;0.80;0.50;;;-3.80;99.90;;;;;;4934612;29;20964;-83
2022/03/27 04:42:59;;;;;;;1.75;0.50;;;-3.80;99.90;;;;;;4936910;29;20413;-85
2022/03/27 04:45:27;;;;;;;1.90;0.70;;;-3.80;99.90;;;;;;4937053;29;20394;-84
2022/03/27 04:47:54;;;;;;;2.50;0.60;;;-3.80;99.90;;;;;;4936790;29;20918;-84
2022/03/27 04:50:22;;;;;;;1.73;0.60;;;-3.80;99.90;;;;;;4935839;29;20565;-84
2022/03/27 04:52:49;;;;;;;2.15;0.50;;;-3.80;99.90;;;;;;4934941;29;20442;-85
2022/03/27 04:55:17;;;;;;;2.03;0.63;;;-3.80;99.90;;;;;;4937077;29;20397;-85
2022/03/27 04:57:45;;;;;;;2.45;0.50;;;-3.70;99.90;;;;;;4951697;29;20492;-85
2022/03/27 05:00:20;;;;;;;2.80;0.70;;;-3.70;99.90;;;;;;4951902;29;20402;-85
2022/03/27 05:02:48;;;;;;;2.70;0.70;;;-3.80;99.90;;;;;;4951828;29;20398;-86
2022/03/27 05:05:15;;;;;;;2.15;0.70;;;-3.80;99.90;;;;;;4937093;29;20401;-85
2022/03/27 05:07:44;;;;;;;2.53;0.70;;;-3.70;99.90;;;;;;4951847;29;20793;-84
2022/03/27 05:10:13;;;;;;;1.00;0.50;;;-3.70;99.90;;;;;;4936522;29;20677;-86
2022/03/27 05:12:41;;;;;;;2.17;0.80;;;-3.70;99.90;;;;;;4936047;29;20398;-86
2022/03/27 05:15:09;;;;;;;1.40;0.70;;;-3.70;99.90;;;;;;4936956;29;20405;-86
2022/03/27 05:17:47;;;;;;;1.38;0.63;;;-3.70;99.90;;;;;;4935682;29;20750;-86
2022/03/27 05:20:15;;;;;;;1.35;0.60;;;-3.70;99.90;;;;;;4931642;29;20446;-85
2022/03/27 05:22:43;;;;;;;1.27;0.55;;;-3.70;99.90;;;;;;4916210;29;20498;-86
2022/03/27 05:25:12;;;;;;;0.98;0.60;;;-3.70;99.90;;;;;;4930892;29;20400;-86
2022/03/27 05:27:50;;;;;;;1.92;0.70;;;-3.70;99.90;;;;;;4916535;29;20458;-85
2022/03/27 05:30:19;;;;;;;1.60;0.47;;;-3.70;99.90;;;;;;4916885;29;20438;-84
2022/03/27 05:32:47;;;;;;;1.70;1.00;;;-3.60;99.90;;;;;;4915591;29;20400;-85
2022/03/27 05:35:16;;;;;;;1.42;0.80;;;-3.60;99.90;;;;;;4915559;29;20404;-82
2022/03/27 05:37:45;;;;;;;1.98;0.70;;;-3.60;99.90;;;;;;4927735;28;20581;-85
2022/03/27 05:40:17;;;;;;;1.80;0.70;;;-3.60;99.90;;;;;;4928534;29;20410;-85
2022/03/27 05:42:45;;;;;;;1.90;0.70;;;-3.60;99.90;;;;;;4925802;29;20407;-86
2022/03/27 05:45:13;;;;;;;1.30;0.40;;;-3.50;99.90;;;;;;4935999;29;20881;-86
2022/03/27 05:47:42;;;;;;;2.00;0.60;;;-3.50;99.90;;;;;;4935697;29;20406;-85
2022/03/27 05:50:14;;;;;;;2.13;0.70;;;-3.50;99.90;;;;;;4934934;29;20904;-86
2022/03/27 05:52:43;;;;;;;4.28;0.70;;;-3.50;99.90;;;;;;4934720;29;20414;-84
2022/03/27 05:55:12;;;;;;;2.00;0.60;;;-3.40;99.90;;;;;;4935956;29;20417;-84
2022/03/27 05:57:41;;;;;;;1.13;0.50;;;-3.40;99.90;;;;;;4934410;29;20413;-83
2022/03/27 06:00:12;;;;;;;1.48;0.50;;;-3.40;99.90;;;;;;4934583;29;20414;-82
2022/03/27 06:02:43;;;;;;;1.63;0.55;;;-3.30;99.90;;;;;;4935991;29;20425;-82
2022/03/27 06:05:11;;;;;;;0.80;0.50;;;-3.30;99.90;;;;;;4947619;29;20467;-84
2022/03/27 06:07:43;;;;;;;1.25;0.55;;;-3.30;99.90;;;;;;4935717;29;20457;-83
2022/03/27 06:10:12;;;;;;;1.63;0.60;;;-3.30;99.90;;;;;;4935746;29;20477;-84
2022/03/27 06:12:39;;;;;;;1.73;0.50;;;-3.30;99.90;;;;;;4950327;29;20422;-85
2022/03/27 06:15:08;;;;;;;1.27;0.47;;;-3.30;99.90;;;;;;4931519;29;20404;-86
2022/03/27 06:17:40;;;;;;;2.75;0.60;;;-3.30;99.90;;;;;;4899726;29;20416;-86
2022/03/27 06:20:10;;;;;;;1.80;0.60;;;-3.30;99.90;;;;;;4916700;29;20399;-83
2022/03/27 06:22:39;;;;;;;1.40;0.60;;;-3.30;99.90;;;;;;4915310;29;20818;-83
2022/03/27 06:25:16;;;;;;;2.30;0.60;;;-3.20;99.90;;;;;;4916825;29;20403;-83
2022/03/27 06:27:44;;;;;;;0.98;0.40;;;-3.20;99.90;;;;;;4916511;29;20403;-83
2022/03/27 06:30:17;;;;;;;3.33;0.70;;;-3.10;99.90;;;;;;4915339;29;20894;-83
2022/03/27 06:32:46;;;;;;;1.40;0.40;;;-3.10;99.90;;;;;;4916397;29;20391;-83
2022/03/27 06:35:15;;;;;;;2.08;0.55;;;-3.10;99.90;;;;;;4899595;29;20432;-83
2022/03/27 06:37:43;;;;;;;2.22;0.50;;;-3.10;99.90;;;;;;4914958;29;20396;-83
2022/03/27 06:40:13;;;;;;;1.15;0.60;;;-3.00;99.90;;;;;;4926293;29;20402;-85
2022/03/27 06:42:43;;;;;;;0.93;0.68;;;-3.10;99.90;;;;;;4932978;29;20406;-85
2022/03/27 06:45:13;;;;;;;2.23;0.60;;;-3.10;99.90;;;;;;4933629;29;20410;-83
2022/03/27 06:47:44;;;;;;;2.50;0.50;;;-3.10;99.90;;;;;;4929582;29;20410;-83
2022/03/27 06:50:13;;;;;;;2.00;0.50;;;-3.10;99.90;;;;;;4912184;29;20405;-83
2022/03/27 06:52:42;;;;;;;1.17;0.60;;;-3.00;99.90;;;;;;4918039;29;20496;-83
2022/03/27 06:55:10;;;;;;;3.55;0.85;;;-3.00;99.90;;;;;;4935687;29;20394;-84
2022/03/27 06:57:38;;;;;;;3.17;0.73;;;-3.00;99.90;;;;;;4916950;29;20405;-83
2022/03/27 07:03:09;;;;;;;0.80;0.50;;;-2.90;99.90;;;;;;4914849;29;20395;-84
2022/03/27 07:05:41;;;;;;;2.60;0.70;;;-3.00;99.90;;;;;;4914585;29;20427;-83
2022/03/27 07:08:17;;;;;;;1.13;0.50;;;-3.00;99.90;;;;;;4914767;29;20408;-83
2022/03/27 07:10:45;;;;;;;1.40;0.60;;;-3.00;99.90;;;;;;4930244;29;20403;-83
2022/03/27 07:13:15;;;;;;;1.92;0.52;;;-3.00;99.90;;;;;;4899169;29;20479;-84
2022/03/27 07:15:45;;;;;;;2.65;0.50;;;-3.00;99.90;;;;;;4915643;29;20404;-83
2022/03/27 07:18:14;;;;;;;1.17;0.50;;;-2.80;99.90;;;;;;4914553;29;20855;-84
2022/03/27 07:20:43;;;;;;;1.50;0.60;;;-2.80;99.90;;;;;;4923540;29;20903;-84
2022/03/27 07:23:16;;;;;;;1.40;0.40;;;-2.80;99.90;;;;;;4925808;29;20765;-83
2022/03/27 07:25:46;;;;;;;1.88;0.70;;;-2.70;99.90;;;;;;4933826;29;20402;-83
2022/03/27 07:28:15;;;;;;;2.03;0.50;;;-2.70;99.90;;;;;;4926723;29;20904;-83
2022/03/27 07:30:43;;;;;;;0.82;0.47;;;-2.60;99.90;;;;;;4949127;29;20389;-85
2022/03/27 07:33:12;;;;;;;1.33;0.55;;;-2.60;99.90;;;;;;4932196;29;20781;-82
2022/03/27 07:35:40;;;;;;;1.80;0.60;;;-2.60;99.90;;;;;;4931422;29;20453;-82
2022/03/27 07:38:08;;;;;;;0.82;0.57;;;-2.60;99.90;;;;;;4932809;29;20416;-84
2022/03/27 07:40:36;;;;;;;2.05;0.60;;;-2.60;99.90;;;;;;4934132;29;20456;-84
2022/03/27 07:43:04;;;;;;;0.77;0.47;;;-2.50;99.90;;;;;;4934257;29;20907;-82
2022/03/27 07:45:33;;;;;;;1.98;0.65;;;-2.50;99.90;;;;;;4933631;29;20398;-83
2022/03/27 07:48:01;;;;;;;1.50;0.60;;;-2.50;99.90;;;;;;4931994;29;20402;-83
2022/03/27 07:50:30;;;;;;;1.00;0.60;;;-2.50;99.90;;;;;;4928395;29;20408;-84
2022/03/27 07:53:00;;;;;;;1.88;0.60;;;-2.50;99.90;;;;;;4942628;29;20439;-82
2022/03/27 07:55:28;;;;;;;2.23;0.73;;;-2.50;99.90;;;;;;4942546;29;20414;-83
2022/03/27 07:57:56;;;;;;;0.80;0.43;;;-2.50;99.90;;;;;;4902265;29;20470;-84
2022/03/27 08:00:27;;;;;;;1.17;0.60;;;-2.60;99.90;;;;;;4917684;29;20422;-83
2022/03/27 08:02:56;;;;;;;3.08;0.57;;;-2.60;99.90;;;;;;4917819;29;20875;-84
2022/03/27 08:05:25;;;;;;;1.00;0.50;;;-2.60;99.90;;;;;;4917791;29;20406;-84
2022/03/27 08:07:53;;;;;;;0.70;0.40;;;-2.60;99.90;;;;;;4917950;29;20509;-83
2022/03/27 08:10:21;;;;;;;1.17;0.55;;;-2.50;99.90;;;;;;4917791;29;20396;-83
2022/03/27 08:12:49;;;;;;;1.00;0.50;;;-2.50;99.90;;;;;;4919160;29;20762;-82
2022/03/27 08:15:17;;;;;;;1.92;0.60;;;-2.40;99.90;;;;;;4932371;29;20414;-83
2022/03/27 08:17:53;;;;;;;1.77;0.50;;;-2.40;99.90;;;;;;4921335;29;20406;-84
2022/03/27 08:20:25;;;;;;;1.00;0.50;;;-2.40;99.90;;;;;;4932628;29;20414;-82
2022/03/27 08:22:54;;;;;;;1.40;0.60;;;-2.40;99.90;;;;;;4936593;29;20793;-83
2022/03/27 08:28:10;;;;;;;1.20;0.55;;;-2.30;99.90;;;;;;4936270;29;20884;-82
2022/03/27 08:30:39;;;;;;;1.33;0.57;;;-2.30;99.90;;;;;;4933375;29;20394;-83
2022/03/27 08:33:07;;;;;;;0.77;0.50;;;-2.20;99.90;;;;;;4935493;29;20393;-84
2022/03/27 08:35:35;;;;;;;1.98;0.50;;;-2.20;99.90;;;;;;4951346;29;20425;-85
2022/03/27 08:38:03;;;;;;;1.38;0.50;;;-2.30;99.90;;;;;;4935892;29;20829;-85
2022/03/27 08:40:31;;;;;;;0.80;0.50;;;-2.20;99.90;;;;;;4936679;29;20393;-85
2022/03/27 08:42:59;;;;;;;1.65;0.50;;;-2.20;99.90;;;;;;4935890;29;20393;-83
2022/03/27 08:45:28;;;;;;;1.75;0.45;;;-2.10;99.90;;;;;;4935712;29;20398;-84
2022/03/27 08:47:56;;;;;;;0.57;0.40;;;-2.10;99.60;;;;;;4920187;29;20398;-85
2022/03/27 08:50:32;;;;;;;1.20;0.63;;;-2.10;99.90;;;;;;4925402;29;20408;-88
2022/03/27 08:53:02;;;;;;;4.38;0.60;;;-2.00;99.90;;;;;;4916744;29;20517;-84
2022/03/27 08:55:50;;;;;;;1.90;0.60;;;-2.00;99.90;;;;;;4912021;29;20491;-85
2022/03/27 08:58:25;;;;;;;1.60;0.50;;;-2.00;99.60;;;;;;4938424;29;20407;-85
2022/03/27 09:00:53;;;;;;;0.75;0.43;;;-2.00;99.90;;;;;;4916608;29;20403;-83
2022/03/27 09:03:22;;;;;;;3.30;0.70;;;-1.90;99.90;;;;;;4918062;29;20406;-84
2022/03/27 09:05:50;;;;;;;2.67;0.40;;;-2.00;99.30;;;;;;4929667;29;20394;-86
2022/03/27 09:08:17;;;;;;;1.20;0.55;;;-2.00;98.20;;;;;;4934481;29;20453;-84
2022/03/27 09:10:45;;;;;;;1.73;0.50;;;-1.90;98.10;;;;;;4930707;29;20805;-85
2022/03/27 09:13:16;;;;;;;1.20;0.50;;;-1.90;97.70;;;;;;4918405;29;20835;-84
2022/03/27 09:15:45;;;;;;;2.28;0.60;;;-1.80;98.30;;;;;;4916317;29;20410;-85
2022/03/27 09:18:14;;;;;;;1.55;0.40;;;-1.70;97.90;;;;;;4931909;29;20419;-84
2022/03/27 09:20:43;;;;;;;1.83;0.70;;;-1.70;98.00;;;;;;4916520;29;20486;-86
2022/03/27 09:23:15;;;;;;;1.45;0.47;;;-1.70;97.90;;;;;;4916978;29;20532;-86
2022/03/27 09:26:04;;;;;;;1.05;0.40;;;-1.60;97.10;;;;;;4931012;29;20771;-83
2022/03/27 09:28:41;;;;;;;1.63;0.50;;;-1.50;97.30;;;;;;4926000;29;20445;-86
2022/03/27 09:31:16;;;;;;;1.02;0.40;;;-1.60;96.00;;;;;;4926492;29;20398;-86
2022/03/27 09:33:49;;;;;;;1.13;0.50;;;-1.50;96.00;;;;;;4924964;29;20480;-85
2022/03/27 09:36:32;;;;;;;2.40;0.40;;;-1.50;95.20;;;;;;4935024;29;20492;-85
2022/03/27 09:39:07;;;;;;;0.90;0.40;;;-1.60;96.00;;;;;;4936306;29;20446;-86
2022/03/27 09:41:41;;;;;;;1.63;0.40;;;-1.60;97.10;;;;;;4935222;29;20444;-85
2022/03/27 09:44:10;;;;;;;2.08;0.57;;;-1.50;96.90;;;;;;4934363;29;20410;-85
2022/03/27 09:47:02;;;;;;;2.20;0.63;;;-1.40;97.00;;;;;;4935408;29;20427;-84
2022/03/27 09:49:41;;;;;;;1.20;0.50;;;-1.50;96.40;;;;;;4929256;29;20410;-85
2022/03/27 09:52:12;;;;;;;1.55;0.50;;;-1.40;96.00;;;;;;4922245;29;20421;-84
2022/03/27 09:54:47;;;;;;;1.08;0.40;;;-1.30;96.20;;;;;;4934592;29;21025;-85
2022/03/27 09:57:21;;;;;;;3.50;0.50;;;-1.40;94.80;;;;;;4934953;29;20884;-86
2022/03/27 09:59:50;;;;;;;1.60;0.43;;;-1.40;94.70;;;;;;4934493;29;20837;-84
2022/03/27 10:02:30;;;;;;;1.17;0.50;;;-1.40;95.00;;;;;;4934400;29;20428;-86
2022/03/27 10:05:01;;;;;;;1.17;0.47;;;-1.40;95.00;;;;;;4935779;29;20827;-84
2022/03/27 10:07:43;;;;;;;1.77;0.40;;;-1.40;93.70;;;;;;4935670;29;20398;-86
2022/03/27 10:10:16;;;;;;;1.38;0.40;;;-1.30;93.00;;;;;;4934748;29;20473;-85
2022/03/27 10:12:46;;;;;;;1.80;0.47;;;-1.20;92.20;;;;;;4935810;29;20872;-83
2022/03/27 10:15:28;;;;;;;0.95;0.40;;;-1.10;93.20;;;;;;4934619;29;20844;-83
2022/03/27 10:18:09;;;;;;;0.70;0.40;;;-1.10;94.20;;;;;;4934392;29;20402;-84
2022/03/27 10:20:38;;;;;;;1.50;0.40;;;-1.00;93.60;;;;;;4934780;29;20410;-85
2022/03/27 10:23:09;;;;;;;1.58;0.50;;;-0.90;93.00;;;;;;4918814;29;20398;-84
2022/03/27 10:25:58;;;;;;;1.50;0.47;;;-0.80;93.70;;;;;;4918877;29;20394;-84
2022/03/27 10:28:27;;;;;;;0.57;0.40;;;-0.80;94.50;;;;;;4918819;29;20398;-83
2022/03/27 10:30:55;;;;;;;0.30;0.30;;;-0.90;93.30;;;;;;4935619;29;20391;-84
2022/03/27 10:33:27;;;;;;;1.20;0.32;;;-0.80;94.60;;;;;;4934454;29;20398;-84
2022/03/27 10:36:08;;;;;;;1.50;0.50;;;-0.80;93.80;;;;;;4918704;29;20405;-85
2022/03/27 10:39:00;;;;;;;1.30;0.40;;;-0.70;94.90;;;;;;4935396;29;20518;-84
2022/03/27 10:41:44;;;;;;;0.77;0.40;;;-0.60;93.80;;;;;;4934414;29;20430;-84
2022/03/27 10:44:40;;;;;;;0.90;0.40;;;-0.70;93.30;;;;;;4909614;29;20471;-84
2022/03/27 10:47:16;;;;;;;0.57;0.40;;;-0.70;92.80;;;;;;4924629;29;20446;-85
2022/03/27 10:50:04;;;;;;;2.05;0.40;;;-0.60;93.40;;;;;;4946667;28;20413;-86
2022/03/27 10:52:57;;;;;;;1.30;0.40;;;-0.60;93.20;;;;;;4929780;29;20450;-83
2022/03/27 10:55:37;;;;;;;1.25;0.47;;;-0.50;91.20;;;;;;4934417;29;20410;-84
2022/03/27 10:58:36;;;;;;;1.70;0.40;;;-0.60;93.20;;;;;;4928157;29;20428;-83
2022/03/27 11:01:32;;;;;;;1.30;0.40;;;-0.30;94.00;;;;;;4901049;29;20417;-85
2022/03/27 11:04:35;;;;;;;1.67;0.80;;;-0.20;92.30;;;;;;4934862;29;20404;-84
2022/03/27 11:07:32;;;;;;;0.93;0.50;;;-0.20;92.80;;;;;;4929035;29;20404;-83
2022/03/27 11:10:00;;;;;;;0.75;0.45;;;-0.20;91.20;;;;;;4918272;29;20766;-84
2022/03/27 11:12:29;;;;;;;0.80;0.40;;;-0.20;91.70;;;;;;4934835;29;20964;-84
2022/03/27 11:15:02;;;;;;;0.80;0.30;;;-0.10;90.80;;;;;;4933736;29;20488;-83
2022/03/27 11:17:41;;;;;;;1.27;0.40;;;-0.20;90.50;;;;;;4934708;29;20457;-83
2022/03/27 11:20:31;;;;;;;1.38;0.50;;;-0.20;91.00;;;;;;4934741;29;20417;-84
2022/03/27 11:23:02;;;;;;;0.80;0.40;;;0.00;92.20;;;;;;4933332;29;20394;-84
2022/03/27 11:25:35;;;;;;;0.65;0.30;;;0.10;90.90;;;;;;4924813;29;20392;-85
2022/03/27 11:28:03;;;;;;;0.63;0.40;;;0.30;89.00;;;;;;4928359;29;20405;-83
2022/03/27 11:30:32;;;;;;;0.40;0.40;;;0.20;91.00;;;;;;4921775;29;20500;-85
2022/03/27 11:33:23;;;;;;;0.88;0.40;;;0.30;91.10;;;;;;4920893;29;20399;-83
2022/03/27 11:36:09;;;;;;;1.10;0.40;;;0.20;90.40;;;;;;4929760;29;20413;-84
2022/03/27 11:38:53;;;;;;;3.53;0.60;;;0.20;90.30;;;;;;4932618;29;20944;-84
2022/03/27 11:41:24;;;;;;;0.50;0.30;;;0.50;91.40;;;;;;4927390;29;20432;-85
2022/03/27 11:43:57;;;;;;;0.95;0.40;;;0.40;87.50;;;;;;4933347;29;20401;-85
2022/03/27 11:46:27;;;;;;;0.98;0.40;;;0.50;88.40;;;;;;4926351;29;20553;-84
2022/03/27 11:48:57;;;;;;;0.68;0.32;;;0.60;85.20;;;;;;4924132;29;20484;-83
2022/03/27 11:51:26;;;;;;;1.15;0.40;;;0.70;85.70;;;;;;4925333;29;20501;-84
2022/03/27 11:53:55;;;;;;;1.25;0.47;;;0.50;86.70;;;;;;4934309;29;20786;-84
2022/03/27 11:56:25;;;;;;;1.15;0.40;;;0.50;90.00;;;;;;4923377;29;20871;-85
2022/03/27 11:59:08;;;;;;;1.50;0.40;;;0.80;85.40;;;;;;4923531;29;20471;-84
2022/03/27 12:01:37;;;;;;;0.95;0.30;;;0.90;85.30;;;;;;4929776;29;20483;-85
2022/03/27 12:04:08;;;;;;;1.42;0.43;;;0.90;84.20;;;;;;4915440;29;20486;-85
2022/03/27 12:06:37;;;;;;;0.95;0.40;;;1.00;83.90;;;;;;4915544;29;20765;-86
2022/03/27 12:09:05;;;;;;;0.80;0.40;;;1.00;84.50;;;;;;4926559;29;20772;-85
2022/03/27 12:11:32;;;;;;;1.60;0.52;;;0.80;86.30;;;;;;4925702;29;20410;-85
2022/03/27 12:14:08;;;;;;;0.40;0.33;;;0.90;88.60;;;;;;4918078;29;20490;-85
2022/03/27 12:16:37;;;;;;;0.63;0.40;;;0.80;85.40;;;;;;4925267;29;20422;-84
2022/03/27 12:19:13;;;;;;;1.80;0.40;;;1.00;90.30;;;;;;4924267;29;20390;-87
2022/03/27 12:21:48;;;;;;;0.60;0.40;;;1.10;88.90;;;;;;4924001;29;20403;-83
2022/03/27 12:24:21;;;;;;;0.70;0.40;;;1.10;88.40;;;;;;4925388;29;20885;-83
2022/03/27 12:29:40;;;;;;;0.90;0.40;;;1.20;86.70;;;;;;4930058;29;20768;-82
2022/03/27 12:32:13;;;;;;;2.35;0.65;;;1.30;84.80;;;;;;4934272;29;20400;-82
2022/03/27 12:34:47;;;;;;;1.08;0.40;;;1.50;83.90;;;;;;4933203;29;20983;-83
2022/03/27 12:37:17;;;;;;;1.02;0.35;;;1.50;80.40;;;;;;4928153;29;20805;-83
2022/03/27 12:39:48;;;;;;;1.52;0.40;;;1.50;81.80;;;;;;4948768;29;20449;-83
2022/03/27 12:42:46;;;;;;;0.85;0.38;;;1.40;82.80;;;;;;4951044;28;20769;-83
2022/03/27 12:45:23;;;;;;;2.78;0.60;;;1.20;83.10;;;;;;4937405;29;20437;-84
2022/03/27 12:47:58;;;;;;;0.88;0.50;;;1.40;83.40;;;;;;4923054;29;20396;-84
2022/03/27 12:50:26;;;;;;;0.50;0.40;;;1.40;84.20;;;;;;4918345;29;20399;-82
2022/03/27 12:52:55;;;;;;;0.50;0.38;;;1.80;81.50;;;;;;4918098;29;20427;-87
2022/03/27 12:55:47;;;;;;;1.65;0.40;;;1.90;81.60;;;;;;4918389;29;20399;-82
2022/03/27 12:58:19;;;;;;;1.75;0.40;;;1.80;84.50;;;;;;4916879;29;20493;-83
2022/03/27 13:01:07;;;;;;;0.90;0.40;;;1.60;84.10;;;;;;4935624;29;20449;-84
2022/03/27 13:03:36;;;;;;;1.48;0.40;;;1.70;85.80;;;;;;4951946;29;20460;-81
2022/03/27 13:06:09;;;;;;;1.35;0.50;;;1.90;86.40;;;;;;4937108;29;20745;-83
2022/03/27 13:08:40;;;;;;;0.82;0.43;;;1.90;84.50;;;;;;4936014;29;20394;-85
2022/03/27 13:11:20;;;;;;;1.45;0.50;;;2.00;82.90;;;;;;4932198;29;20494;-85
2022/03/27 13:13:56;;;;;;;1.48;0.40;;;2.00;87.70;;;;;;4916909;29;20863;-86
2022/03/27 13:16:43;;;;;;;2.65;0.40;;;2.30;80.10;;;;;;4932644;29;20404;-82
2022/03/27 13:19:18;;;;;;;1.38;0.60;;;2.30;83.40;;;;;;4916628;29;20490;-84
2022/03/27 13:21:54;;;;;;;0.90;0.40;;;1.80;83.90;;;;;;4917856;29;20395;-83